Time;durP1;ratioP1;P1;durP2;ratioP2;P2;SDS_P1;SDS_P2;PMS_P1;PMS_P2;Temp;Humidity;BMP_temperature;BMP_pressure;BME280_temperature;BME280_humidity;BME280_pressure;Samples;Min_cycle;Max_cycle;Signal;HPM_P1;HPM_P2
2023/06/24 00:01:31;;;;;;;;;;;;;;;20.51;100.00;95220.13;5052314;28;1020;-56
2023/06/24 00:03:57;;;;;;;;;;;;;;;20.58;100.00;95210.03;5053643;28;1898;-56
2023/06/24 00:06:25;;;;;;;;;;;;;;;20.47;100.00;95207.00;5053228;28;1080;-56
2023/06/24 00:08:52;;;;;;;;;;;;;;;20.40;100.00;95214.38;5053284;28;982;-56
2023/06/24 00:11:18;;;;;;;;;;;;;;;20.43;100.00;95213.09;5053455;28;1028;-56
2023/06/24 00:13:44;;;;;;;;;;;;;;;20.41;100.00;95207.91;5053263;28;1084;-56
2023/06/24 00:16:10;;;;;;;;;;;;;;;20.22;100.00;95206.16;5024953;28;2868;-56
2023/06/24 00:18:40;;;;;;;;;;;;;;;20.12;100.00;95197.66;5013846;28;1029;-55
2023/06/24 00:21:06;;;;;;;;;;;;;;;20.23;100.00;95200.50;5013595;28;1978;-55
2023/06/24 00:23:35;;;;;;;;;;;;;;;20.18;100.00;95196.78;5013658;28;1915;-56
2023/06/24 00:26:02;;;;;;;;;;;;;;;20.22;100.00;95185.28;5013749;28;1044;-56
2023/06/24 00:28:28;;;;;;;;;;;;;;;20.35;100.00;95188.94;5013561;28;1025;-56
2023/06/24 00:30:54;;;;;;;;;;;;;;;20.42;100.00;95189.72;5016248;28;1712;-56
2023/06/24 00:33:20;;;;;;;;;;;;;;;20.42;100.00;95192.44;5033033;28;1606;-56
2023/06/24 00:35:46;;;;;;;;;;;;;;;20.41;100.00;95198.91;5033444;28;1048;-56
2023/06/24 00:38:13;;;;;;;;;;;;;;;20.38;100.00;95200.19;5033074;28;1558;-55
2023/06/24 00:40:39;;;;;;;;;;;;;;;20.16;100.00;95188.84;5033338;28;1016;-56
2023/06/24 00:43:05;;;;;;;;;;;;;;;19.84;100.00;95182.59;5033269;28;1906;-56
2023/06/24 00:45:31;;;;;;;;;;;;;;;19.76;100.00;95166.59;5035892;28;1042;-56
2023/06/24 00:47:58;;;;;;;;;;;;;;;19.96;100.00;95170.00;5037161;28;973;-56
2023/06/24 00:50:24;;;;;;;;;;;;;;;20.14;100.00;95168.44;5037251;28;1214;-56
2023/06/24 00:52:50;;;;;;;;;;;;;;;20.21;100.00;95170.03;5036899;28;1065;-56
2023/06/24 00:55:17;;;;;;;;;;;;;;;20.40;100.00;95189.94;5037034;28;973;-56
2023/06/24 00:57:44;;;;;;;;;;;;;;;20.40;100.00;95195.38;5036908;28;1225;-56
2023/06/24 01:00:14;;;;;;;;;;;;;;;20.23;100.00;95186.09;5036049;28;2241;-56
2023/06/24 01:02:42;;;;;;;;;;;;;;;19.95;100.00;95183.78;5055397;28;2897;-56
2023/06/24 01:05:08;;;;;;;;;;;;;;;19.90;100.00;95192.59;5056804;28;970;-56
2023/06/24 01:07:37;;;;;;;;;;;;;;;20.11;100.00;95215.84;5056976;28;1128;-56
2023/06/24 01:10:07;;;;;;;;;;;;;;;20.15;100.00;95211.63;5056823;28;1133;-56
2023/06/24 01:12:34;;;;;;;;;;;;;;;20.33;100.00;95221.72;5056550;28;1036;-56
2023/06/24 01:15:01;;;;;;;;;;;;;;;20.36;100.00;95234.06;5056599;28;1001;-56
2023/06/24 01:17:40;;;;;;;;;;;;;;;20.30;100.00;95224.91;5056423;28;1064;-55
2023/06/24 01:20:10;;;;;;;;;;;;;;;20.08;100.00;95236.09;5056324;28;982;-56
2023/06/24 01:22:47;;;;;;;;;;;;;;;19.89;100.00;95235.16;5056542;28;1985;-56
2023/06/24 01:25:40;;;;;;;;;;;;;;;19.86;100.00;95235.63;5056591;28;987;-56
2023/06/24 01:28:24;;;;;;;;;;;;;;;19.97;100.00;95234.06;5056659;28;969;-56
2023/06/24 01:31:10;;;;;;;;;;;;;;;20.04;100.00;95231.34;5053558;28;1405;-56
2023/06/24 01:33:45;;;;;;;;;;;;;;;19.61;100.00;95230.03;5033665;28;1218;-56
2023/06/24 01:36:11;;;;;;;;;;;;;;;19.59;100.00;95237.56;5036071;28;1113;-56
2023/06/24 01:38:44;;;;;;;;;;;;;;;19.60;100.00;95239.25;5036061;28;1519;-56
2023/06/24 01:41:11;;;;;;;;;;;;;;;19.48;100.00;95233.66;5036030;28;1304;-56
2023/06/24 01:43:37;;;;;;;;;;;;;;;19.50;100.00;95230.72;5036139;28;2001;-56
2023/06/24 01:46:05;;;;;;;;;;;;;;;19.73;100.00;95229.41;5035895;28;1037;-56
2023/06/24 01:48:34;;;;;;;;;;;;;;;19.84;100.00;95229.56;5035837;28;1038;-56
2023/06/24 01:51:03;;;;;;;;;;;;;;;19.91;100.00;95229.53;5036173;28;980;-56
2023/06/24 01:53:32;;;;;;;;;;;;;;;19.81;100.00;95229.16;5035547;28;1245;-56
2023/06/24 01:56:00;;;;;;;;;;;;;;;19.45;100.00;95235.97;5035615;28;981;-56
2023/06/24 01:58:26;;;;;;;;;;;;;;;19.48;100.00;95240.94;5035894;28;976;-56
2023/06/24 02:00:52;;;;;;;;;;;;;;;19.62;100.00;95234.44;5035746;28;1078;-56
2023/06/24 02:03:19;;;;;;;;;;;;;;;19.73;100.00;95237.53;5035890;28;1910;-56
2023/06/24 02:05:46;;;;;;;;;;;;;;;19.84;100.00;95236.84;5035755;28;977;-56
2023/06/24 02:08:13;;;;;;;;;;;;;;;19.91;100.00;95242.25;5035750;28;1033;-56
2023/06/24 02:10:40;;;;;;;;;;;;;;;19.94;100.00;95250.81;5035704;28;969;-56
2023/06/24 02:13:08;;;;;;;;;;;;;;;19.95;100.00;95243.50;5035535;28;1962;-56
2023/06/24 02:15:35;;;;;;;;;;;;;;;20.22;100.00;95244.16;5035504;28;1358;-56
2023/06/24 02:18:02;;;;;;;;;;;;;;;19.96;100.00;95246.00;5035383;28;1089;-56
2023/06/24 02:20:29;;;;;;;;;;;;;;;19.94;100.00;95252.66;5035242;28;1057;-56
2023/06/24 02:22:57;;;;;;;;;;;;;;;19.80;100.00;95232.91;5035306;28;1898;-56
2023/06/24 02:25:24;;;;;;;;;;;;;;;19.83;100.00;95248.78;5035509;28;969;-55
2023/06/24 02:27:51;;;;;;;;;;;;;;;19.79;100.00;95244.84;5035472;28;1032;-55
2023/06/24 02:30:17;;;;;;;;;;;;;;;19.92;100.00;95261.03;5035149;28;1150;-55
2023/06/24 02:32:43;;;;;;;;;;;;;;;20.09;100.00;95266.81;5034761;28;1692;-55
2023/06/24 02:35:09;;;;;;;;;;;;;;;20.17;100.00;95257.56;5035171;28;1036;-55
2023/06/24 02:37:35;;;;;;;;;;;;;;;19.77;100.00;95260.47;5035092;28;1252;-55
2023/06/24 02:40:02;;;;;;;;;;;;;;;19.61;100.00;95259.88;5035132;28;1063;-55
2023/06/24 02:42:29;;;;;;;;;;;;;;;19.63;100.00;95265.09;5034763;28;1911;-55
2023/06/24 02:44:55;;;;;;;;;;;;;;;19.61;100.00;95270.72;5034818;28;1351;-55
2023/06/24 02:47:21;;;;;;;;;;;;;;;19.70;100.00;95274.03;5034790;28;1024;-55
2023/06/24 02:49:48;;;;;;;;;;;;;;;19.58;100.00;95282.03;5034781;28;1074;-56
2023/06/24 02:52:15;;;;;;;;;;;;;;;19.72;100.00;95282.81;5034964;28;1052;-55
2023/06/24 02:54:41;;;;;;;;;;;;;;;19.71;100.00;95281.16;5034874;28;973;-56
2023/06/24 02:57:08;;;;;;;;;;;;;;;19.57;100.00;95290.38;5034614;28;1033;-55
2023/06/24 02:59:35;;;;;;;;;;;;;;;19.63;100.00;95284.91;5034464;28;1046;-56
2023/06/24 03:02:03;;;;;;;;;;;;;;;19.66;100.00;95294.50;5034554;28;1097;-56
2023/06/24 03:04:30;;;;;;;;;;;;;;;19.65;100.00;95293.69;5034310;28;1926;-56
2023/06/24 03:06:59;;;;;;;;;;;;;;;19.48;100.00;95282.47;5033923;28;1044;-57
2023/06/24 03:09:26;;;;;;;;;;;;;;;19.57;100.00;95288.47;5034548;28;1048;-56
2023/06/24 03:11:53;;;;;;;;;;;;;;;19.67;100.00;95291.59;5034447;28;1105;-56
2023/06/24 03:14:19;;;;;;;;;;;;;;;19.67;100.00;95294.31;5034324;28;1023;-56
2023/06/24 03:16:45;;;;;;;;;;;;;;;19.72;100.00;95290.09;5034297;28;1019;-56
2023/06/24 03:19:11;;;;;;;;;;;;;;;19.73;100.00;95291.78;5034377;28;1299;-56
2023/06/24 03:21:37;;;;;;;;;;;;;;;19.79;100.00;95293.66;5034256;28;1081;-57
2023/06/24 03:24:04;;;;;;;;;;;;;;;19.84;100.00;95301.97;5034296;28;1970;-56
2023/06/24 03:26:37;;;;;;;;;;;;;;;19.70;100.00;95302.00;5034029;28;1045;-55
2023/06/24 03:29:03;;;;;;;;;;;;;;;19.74;100.00;95305.16;5034123;28;1010;-56
2023/06/24 03:31:29;;;;;;;;;;;;;;;19.78;100.00;95309.09;5033586;28;1591;-55
2023/06/24 03:33:55;;;;;;;;;;;;;;;19.88;100.00;95314.06;5039147;28;2940;-56
2023/06/24 03:36:21;;;;;;;;;;;;;;;20.00;100.00;95320.50;5054141;28;1049;-56
2023/06/24 03:38:47;;;;;;;;;;;;;;;20.16;100.00;95312.91;5053020;28;980;-56
2023/06/24 03:41:14;;;;;;;;;;;;;;;20.33;100.00;95314.03;5053915;28;1016;-56
2023/06/24 03:43:41;;;;;;;;;;;;;;;20.42;100.00;95310.03;5053636;28;1992;-56
2023/06/24 03:46:07;;;;;;;;;;;;;;;20.54;100.00;95303.88;5053773;28;1032;-56
2023/06/24 03:48:35;;;;;;;;;;;;;;;20.37;100.00;95296.25;5053808;28;968;-56
2023/06/24 03:51:01;;;;;;;;;;;;;;;20.21;100.00;95299.50;5053597;28;1057;-56
2023/06/24 03:53:27;;;;;;;;;;;;;;;20.14;100.00;95301.41;5053469;28;1045;-56
2023/06/24 03:55:53;;;;;;;;;;;;;;;20.21;100.00;95307.66;5053857;28;1012;-56
2023/06/24 03:58:20;;;;;;;;;;;;;;;20.25;100.00;95314.31;5053781;28;1051;-56
2023/06/24 04:00:49;;;;;;;;;;;;;;;20.45;100.00;95314.16;5053774;28;1040;-57
2023/06/24 04:03:18;;;;;;;;;;;;;;;20.68;100.00;95324.53;5053537;28;1910;-57
2023/06/24 04:05:44;;;;;;;;;;;;;;;20.88;100.00;95332.50;5053407;28;1166;-56
2023/06/24 04:08:10;;;;;;;;;;;;;;;21.02;100.00;95331.34;5053514;28;1052;-56
2023/06/24 04:10:36;;;;;;;;;;;;;;;21.18;100.00;95329.94;5053371;28;1033;-56
2023/06/24 04:13:02;;;;;;;;;;;;;;;21.30;100.00;95323.78;5052234;28;1117;-56
2023/06/24 04:15:28;;;;;;;;;;;;;;;21.27;100.00;95327.78;5053260;28;1067;-56
2023/06/24 04:17:55;;;;;;;;;;;;;;;21.35;100.00;95330.22;5043797;28;3001;-56
2023/06/24 04:20:21;;;;;;;;;;;;;;;21.63;100.00;95329.75;5051544;28;3008;-56
2023/06/24 04:22:47;;;;;;;;;;;;;;;21.84;99.81;95339.34;5053290;28;1990;-56
2023/06/24 04:25:13;;;;;;;;;;;;;;;21.99;98.17;95341.69;5053210;28;961;-56
2023/06/24 04:27:39;;;;;;;;;;;;;;;22.11;97.36;95349.94;5053234;28;1040;-56
2023/06/24 04:30:05;;;;;;;;;;;;;;;22.16;98.80;95350.06;5053129;28;1031;-56
2023/06/24 04:32:31;;;;;;;;;;;;;;;22.14;98.90;95345.91;5036110;28;1885;-56
2023/06/24 04:35:00;;;;;;;;;;;;;;;22.21;98.30;95338.47;5033569;28;1228;-56
2023/06/24 04:37:26;;;;;;;;;;;;;;;22.19;98.95;95335.97;5033411;28;1063;-56
2023/06/24 04:39:52;;;;;;;;;;;;;;;22.19;98.52;95333.25;5037249;28;3322;-56
2023/06/24 04:42:18;;;;;;;;;;;;;;;22.26;99.23;95335.94;5052989;28;2128;-56
2023/06/24 04:44:44;;;;;;;;;;;;;;;22.24;99.90;95327.16;5053156;28;1066;-56
2023/06/24 04:47:13;;;;;;;;;;;;;;;22.25;100.00;95339.72;5052906;28;1061;-56
2023/06/24 04:49:40;;;;;;;;;;;;;;;22.58;98.58;95339.28;5053019;28;1124;-56
2023/06/24 04:52:06;;;;;;;;;;;;;;;22.78;96.88;95343.59;5052905;28;1034;-56
2023/06/24 04:54:32;;;;;;;;;;;;;;;22.79;95.64;95348.81;5051734;28;1301;-56
2023/06/24 04:56:58;;;;;;;;;;;;;;;22.71;96.83;95335.53;5053171;28;1044;-56
2023/06/24 04:59:24;;;;;;;;;;;;;;;22.83;96.39;95342.91;5053035;28;969;-56
2023/06/24 05:01:50;;;;;;;;;;;;;;;22.85;96.53;95333.41;5053145;28;1039;-56
2023/06/24 05:04:16;;;;;;;;;;;;;;;23.02;94.71;95343.66;5052990;28;1910;-56
2023/06/24 05:06:42;;;;;;;;;;;;;;;23.00;93.95;95341.16;5052996;28;969;-56
2023/06/24 05:09:10;;;;;;;;;;;;;;;23.13;94.17;95330.06;5052781;28;977;-56
2023/06/24 05:11:36;;;;;;;;;;;;;;;23.23;93.06;95334.94;5052828;28;1978;-56
2023/06/24 05:14:03;;;;;;;;;;;;;;;23.34;92.75;95330.56;5052714;28;981;-56
2023/06/24 05:16:29;;;;;;;;;;;;;;;23.56;91.58;95328.03;5052930;28;1059;-56
2023/06/24 05:18:55;;;;;;;;;;;;;;;23.45;92.00;95327.00;5052660;28;1072;-56
2023/06/24 05:21:21;;;;;;;;;;;;;;;23.47;90.51;95332.22;5035735;28;2599;-56
2023/06/24 05:23:47;;;;;;;;;;;;;;;23.47;92.71;95332.22;5032792;28;1996;-56
2023/06/24 05:26:14;;;;;;;;;;;;;;;23.47;91.75;95338.50;5032681;28;958;-56
2023/06/24 05:28:40;;;;;;;;;;;;;;;23.80;90.59;95337.06;5032632;28;964;-56
2023/06/24 05:31:06;;;;;;;;;;;;;;;24.00;89.88;95335.84;5031599;28;1710;-56
2023/06/24 05:33:32;;;;;;;;;;;;;;;23.96;89.69;95328.16;5035972;28;1883;-56
2023/06/24 05:35:58;;;;;;;;;;;;;;;23.90;89.03;95328.28;5036213;28;1025;-56
2023/06/24 05:38:24;;;;;;;;;;;;;;;24.00;90.48;95333.13;5036390;28;973;-56
2023/06/24 05:40:50;;;;;;;;;;;;;;;24.00;89.87;95342.16;5036380;28;1121;-56
2023/06/24 05:43:16;;;;;;;;;;;;;;;24.28;88.64;95337.78;5035899;28;1997;-56
2023/06/24 05:45:42;;;;;;;;;;;;;;;24.16;87.81;95337.84;5036004;28;1040;-56
2023/06/24 05:48:08;;;;;;;;;;;;;;;24.18;85.42;95332.97;5039252;28;2537;-56
2023/06/24 05:50:34;;;;;;;;;;;;;;;24.52;83.45;95333.13;5055787;28;1045;-57
2023/06/24 05:53:00;;;;;;;;;;;;;;;24.79;85.01;95327.84;5055778;28;1994;-56
2023/06/24 05:55:26;;;;;;;;;;;;;;;24.99;83.90;95324.66;5056007;28;969;-56
2023/06/24 05:57:52;;;;;;;;;;;;;;;25.01;84.27;95322.50;5055757;28;1110;-56
2023/06/24 06:00:18;;;;;;;;;;;;;;;24.92;85.49;95318.53;5055787;28;1036;-56
2023/06/24 06:02:44;;;;;;;;;;;;;;;24.86;85.92;95325.81;5048659;28;3028;-57
2023/06/24 06:05:10;;;;;;;;;;;;;;;24.98;85.14;95319.44;5051073;28;2893;-57
2023/06/24 06:07:39;;;;;;;;;;;;;;;24.83;82.61;95312.63;5055547;28;1092;-56
2023/06/24 06:10:06;;;;;;;;;;;;;;;24.94;82.32;95321.84;5055524;28;1039;-56
2023/06/24 06:12:32;;;;;;;;;;;;;;;25.38;81.38;95329.41;5055408;28;1355;-56
2023/06/24 06:14:58;;;;;;;;;;;;;;;25.59;82.72;95334.13;5055730;28;981;-56
2023/06/24 06:17:24;;;;;;;;;;;;;;;25.62;83.64;95332.78;5055434;28;1021;-56
2023/06/24 06:19:50;;;;;;;;;;;;;;;25.80;82.24;95318.81;5055459;28;1001;-56
2023/06/24 06:22:17;;;;;;;;;;;;;;;25.66;82.86;95331.22;5055561;28;969;-56
2023/06/24 06:24:43;;;;;;;;;;;;;;;25.76;82.69;95325.03;5055222;28;1042;-57
2023/06/24 06:27:11;;;;;;;;;;;;;;;25.63;82.43;95334.44;5055049;28;1077;-57
2023/06/24 06:29:37;;;;;;;;;;;;;;;25.65;83.80;95324.91;5055568;28;1008;-57
2023/06/24 06:32:03;;;;;;;;;;;;;;;25.82;81.92;95321.28;5042513;28;1345;-57
2023/06/24 06:34:29;;;;;;;;;;;;;;;25.92;80.82;95317.91;5034898;28;1120;-56
2023/06/24 06:36:55;;;;;;;;;;;;;;;26.02;80.49;95321.59;5034494;28;2899;-56
2023/06/24 06:39:21;;;;;;;;;;;;;;;25.99;77.81;95318.53;5034389;28;2873;-56
2023/06/24 06:41:47;;;;;;;;;;;;;;;26.08;79.98;95326.03;5034974;28;1535;-56
2023/06/24 06:44:13;;;;;;;;;;;;;;;26.15;78.69;95325.06;5034977;28;1922;-56
2023/06/24 06:46:39;;;;;;;;;;;;;;;26.27;78.49;95326.59;5035051;28;1024;-56
2023/06/24 06:49:05;;;;;;;;;;;;;;;26.18;80.20;95319.03;5034471;28;2547;-57
2023/06/24 06:51:31;;;;;;;;;;;;;;;26.18;78.37;95314.41;5049183;28;3031;-57
2023/06/24 06:53:57;;;;;;;;;;;;;;;26.57;79.03;95308.81;5054726;28;997;-57
2023/06/24 06:56:24;;;;;;;;;;;;;;;26.46;80.21;95307.03;5053318;28;1037;-57
2023/06/24 06:58:51;;;;;;;;;;;;;;;26.38;76.09;95305.59;5054566;28;1028;-57
2023/06/24 07:01:17;;;;;;;;;;;;;;;26.45;77.90;95302.66;5054765;28;1044;-57
2023/06/24 07:03:44;;;;;;;;;;;;;;;26.44;76.84;95301.81;5054576;28;1910;-57
2023/06/24 07:06:10;;;;;;;;;;;;;;;26.58;77.35;95304.13;5054440;28;1056;-58
2023/06/24 07:08:36;;;;;;;;;;;;;;;26.84;76.15;95289.66;5047011;28;2493;-57
2023/06/24 07:11:02;;;;;;;;;;;;;;;26.90;75.52;95296.00;5054246;28;1030;-57
2023/06/24 07:13:28;;;;;;;;;;;;;;;27.06;76.44;95289.56;5048657;28;2593;-57
2023/06/24 07:15:54;;;;;;;;;;;;;;;27.06;76.01;95292.28;5048340;28;2857;-57
2023/06/24 07:18:21;;;;;;;;;;;;;;;26.99;77.37;95291.69;5053138;28;984;-57
2023/06/24 07:20:47;;;;;;;;;;;;;;;26.96;74.44;95289.47;5053882;28;1065;-57
2023/06/24 07:23:13;;;;;;;;;;;;;;;27.18;76.93;95291.28;5053926;28;1917;-57
2023/06/24 07:25:39;;;;;;;;;;;;;;;27.47;74.32;95297.31;5054219;28;1049;-57
2023/06/24 07:28:05;;;;;;;;;;;;;;;27.49;74.19;95305.25;5049073;28;2203;-57
2023/06/24 07:30:31;;;;;;;;;;;;;;;27.77;75.23;95302.16;5020954;28;2944;-58
2023/06/24 07:32:57;;;;;;;;;;;;;;;27.77;73.77;95310.38;5045742;28;1217;-58
2023/06/24 07:35:23;;;;;;;;;;;;;;;27.99;72.11;95304.78;5032735;28;1021;-58
2023/06/24 07:37:49;;;;;;;;;;;;;;;28.23;71.86;95293.34;5033859;28;1208;-57
2023/06/24 07:40:15;;;;;;;;;;;;;;;28.10;70.39;95300.16;5033703;28;1186;-58
2023/06/24 07:42:41;;;;;;;;;;;;;;;28.15;71.14;95299.34;5033914;28;1997;-57
2023/06/24 07:45:08;;;;;;;;;;;;;;;28.22;68.74;95292.50;5033812;28;1051;-58
2023/06/24 07:47:34;;;;;;;;;;;;;;;28.42;69.57;95301.94;5033644;28;961;-58
2023/06/24 07:50:00;;;;;;;;;;;;;;;28.60;70.79;95292.38;5033832;28;1085;-58
2023/06/24 07:52:26;;;;;;;;;;;;;;;28.72;70.17;95294.88;5033372;28;989;-58
2023/06/24 07:54:52;;;;;;;;;;;;;;;28.77;68.45;95292.13;5033354;28;1048;-58
2023/06/24 07:57:18;;;;;;;;;;;;;;;28.64;67.02;95292.66;5033278;28;922;-58
2023/06/24 07:59:44;;;;;;;;;;;;;;;28.70;70.01;95292.38;5033645;28;1182;-57
2023/06/24 08:02:11;;;;;;;;;;;;;;;28.84;68.47;95295.47;5033459;28;949;-58
2023/06/24 08:04:37;;;;;;;;;;;;;;;28.61;67.93;95283.84;5034473;28;2603;-58
2023/06/24 08:07:03;;;;;;;;;;;;;;;28.55;68.05;95284.94;5053261;28;1037;-57
2023/06/24 08:09:29;;;;;;;;;;;;;;;28.48;69.65;95287.09;5053428;28;997;-57
2023/06/24 08:11:55;;;;;;;;;;;;;;;28.49;70.85;95285.97;5051933;28;1082;-57
2023/06/24 08:14:21;;;;;;;;;;;;;;;28.66;70.52;95284.97;5053061;28;1065;-58
2023/06/24 08:16:47;;;;;;;;;;;;;;;28.66;66.67;95273.97;5053430;28;1059;-57
2023/06/24 08:19:14;;;;;;;;;;;;;;;28.93;68.24;95273.72;5053218;28;1012;-58
2023/06/24 08:21:40;;;;;;;;;;;;;;;29.06;67.41;95267.66;5053068;28;1101;-57
2023/06/24 08:24:07;;;;;;;;;;;;;;;29.08;67.92;95272.88;5053093;28;1903;-57
2023/06/24 08:26:33;;;;;;;;;;;;;;;29.15;68.05;95273.47;5052903;28;1044;-57
2023/06/24 08:28:59;;;;;;;;;;;;;;;29.28;67.20;95270.16;5041333;28;2729;-58
2023/06/24 08:31:25;;;;;;;;;;;;;;;29.48;68.76;95272.09;5045515;28;1342;-58
2023/06/24 08:33:53;;;;;;;;;;;;;;;29.52;67.75;95269.56;5033757;28;2504;-58
2023/06/24 08:36:19;;;;;;;;;;;;;;;29.47;66.89;95262.16;5052850;28;1288;-58
2023/06/24 08:38:46;;;;;;;;;;;;;;;29.46;68.28;95265.19;5053002;28;1051;-57
2023/06/24 08:41:12;;;;;;;;;;;;;;;29.40;69.65;95258.84;5052910;28;993;-58
2023/06/24 08:43:39;;;;;;;;;;;;;;;29.16;67.18;95258.63;5052772;28;1906;-58
2023/06/24 08:46:06;;;;;;;;;;;;;;;29.22;66.92;95252.00;5052945;28;1044;-58
2023/06/24 08:48:32;;;;;;;;;;;;;;;29.28;65.02;95253.66;5052664;28;1295;-57
2023/06/24 08:50:59;;;;;;;;;;;;;;;29.46;69.62;95259.69;5053097;28;1072;-58
2023/06/24 08:53:26;;;;;;;;;;;;;;;29.24;67.05;95262.75;5033048;28;2549;-57
2023/06/24 08:55:53;;;;;;;;;;;;;;;29.42;67.28;95255.84;5031728;28;2578;-57
2023/06/24 08:58:19;;;;;;;;;;;;;;;29.69;67.63;95259.09;5032934;28;961;-58
2023/06/24 09:00:45;;;;;;;;;;;;;;;29.79;68.22;95263.78;5033122;28;1001;-57
2023/06/24 09:03:12;;;;;;;;;;;;;;;29.90;67.33;95259.88;5032186;28;2308;-57
2023/06/24 09:05:38;;;;;;;;;;;;;;;30.21;66.80;95253.41;5034143;28;2877;-57
2023/06/24 09:08:04;;;;;;;;;;;;;;;30.34;65.49;95263.88;5036892;28;987;-58
2023/06/24 09:10:31;;;;;;;;;;;;;;;30.31;65.51;95259.69;5036433;28;1021;-58
2023/06/24 09:12:57;;;;;;;;;;;;;;;30.34;63.31;95248.13;5036844;28;1036;-57
2023/06/24 09:15:23;;;;;;;;;;;;;;;30.33;61.76;95253.94;5034728;28;2579;-58
2023/06/24 09:17:49;;;;;;;;;;;;;;;30.41;62.97;95258.03;5041276;28;3007;-58
2023/06/24 09:20:19;;;;;;;;;;;;;;;30.27;63.07;95255.84;5034973;28;2515;-57
2023/06/24 09:22:45;;;;;;;;;;;;;;;30.29;63.07;95256.41;5036221;28;1977;-58
2023/06/24 09:25:16;;;;;;;;;;;;;;;30.39;62.04;95250.03;5036070;28;1028;-58
2023/06/24 09:27:46;;;;;;;;;;;;;;;30.33;60.54;95249.22;5036527;28;1031;-57
2023/06/24 09:30:20;;;;;;;;;;;;;;;30.31;59.74;95240.38;5036151;28;1041;-57
2023/06/24 09:32:47;;;;;;;;;;;;;;;30.26;61.14;95245.09;5035785;28;1327;-57
2023/06/24 09:35:13;;;;;;;;;;;;;;;30.35;63.55;95247.03;5036221;28;1064;-57
2023/06/24 09:37:40;;;;;;;;;;;;;;;30.38;62.04;95247.56;5036278;28;1160;-58
2023/06/24 09:40:08;;;;;;;;;;;;;;;30.42;61.13;95246.72;5035556;28;2940;-58
2023/06/24 09:42:35;;;;;;;;;;;;;;;30.43;61.63;95244.78;5041776;28;2881;-58
2023/06/24 09:45:04;;;;;;;;;;;;;;;30.55;61.26;95240.56;5051536;28;2565;-58
2023/06/24 09:47:30;;;;;;;;;;;;;;;30.78;60.66;95243.72;5025891;28;2885;-58
2023/06/24 09:49:56;;;;;;;;;;;;;;;30.94;59.65;95233.41;5020092;28;2449;-58
2023/06/24 09:52:23;;;;;;;;;;;;;;;31.09;56.49;95230.56;5045774;28;2925;-58
2023/06/24 09:54:50;;;;;;;;;;;;;;;31.08;54.93;95225.31;5055721;28;1085;-58
2023/06/24 09:57:19;;;;;;;;;;;;;;;31.20;55.13;95220.22;5055886;28;1029;-58
2023/06/24 09:59:46;;;;;;;;;;;;;;;30.93;55.71;95213.28;5041356;28;2510;-58
2023/06/24 10:02:14;;;;;;;;;;;;;;;30.81;58.02;95211.97;5053743;28;2960;-58
2023/06/24 10:04:41;;;;;;;;;;;;;;;30.87;60.19;95208.88;5055433;28;1962;-58
2023/06/24 10:07:07;;;;;;;;;;;;;;;30.92;60.01;95206.13;5055772;28;1041;-58
2023/06/24 10:09:33;;;;;;;;;;;;;;;30.86;57.91;95198.94;5044794;28;2521;-58
2023/06/24 10:12:00;;;;;;;;;;;;;;;30.87;58.69;95200.59;5016271;28;1048;-58
2023/06/24 10:14:26;;;;;;;;;;;;;;;30.89;56.99;95192.84;5016397;28;2567;-58
2023/06/24 10:17:00;;;;;;;;;;;;;;;30.84;59.40;95192.06;5043028;28;2837;-58
2023/06/24 10:19:27;;;;;;;;;;;;;;;30.81;57.15;95187.97;5055202;28;1063;-58
2023/06/24 10:21:54;;;;;;;;;;;;;;;30.74;61.29;95173.66;5055388;28;1057;-58
2023/06/24 10:24:46;;;;;;;;;;;;;;;31.06;57.74;95170.38;5054993;28;1910;-58
2023/06/24 10:27:16;;;;;;;;;;;;;;;31.33;61.01;95175.34;5052964;28;1247;-58
2023/06/24 10:29:46;;;;;;;;;;;;;;;31.46;60.90;95178.53;5055179;28;993;-58
2023/06/24 10:32:12;;;;;;;;;;;;;;;31.48;59.88;95176.34;5040950;28;1395;-59
2023/06/24 10:34:40;;;;;;;;;;;;;;;31.49;59.68;95183.50;5032539;28;2857;-58
2023/06/24 10:37:09;;;;;;;;;;;;;;;31.58;58.35;95186.44;5035101;28;997;-58
2023/06/24 10:39:35;;;;;;;;;;;;;;;31.62;57.44;95193.84;5033742;28;2597;-58
2023/06/24 10:42:20;;;;;;;;;;;;;;;31.61;57.31;95192.22;5034907;28;1232;-57
2023/06/24 10:44:47;;;;;;;;;;;;;;;31.17;60.57;95173.88;5034797;28;1898;-60
2023/06/24 10:47:13;;;;;;;;;;;;;;;30.86;61.24;95154.78;5034761;28;1527;-59
2023/06/24 10:49:39;;;;;;;;;;;;;;;30.53;60.35;95145.41;5033750;28;1193;-59
2023/06/24 10:52:12;;;;;;;;;;;;;;;30.32;62.05;95133.72;5035214;28;1049;-59
2023/06/24 10:54:38;;;;;;;;;;;;;;;30.12;62.16;95134.63;5034652;28;1033;-59
2023/06/24 10:57:05;;;;;;;;;;;;;;;30.11;63.47;95136.56;5032523;28;2213;-59
2023/06/24 10:59:35;;;;;;;;;;;;;;;30.02;64.28;95134.69;5048785;28;2917;-58
2023/06/24 11:02:01;;;;;;;;;;;;;;;29.90;63.85;95124.84;5054814;28;1001;-59
2023/06/24 11:04:28;;;;;;;;;;;;;;;29.98;61.42;95129.75;5053483;28;1918;-59
2023/06/24 11:07:01;;;;;;;;;;;;;;;29.92;64.86;95141.09;5053319;28;965;-59
2023/06/24 11:09:27;;;;;;;;;;;;;;;29.97;61.77;95152.91;5052245;28;3031;-59
2023/06/24 11:11:54;;;;;;;;;;;;;;;29.95;64.88;95157.06;5045542;28;2873;-60
2023/06/24 11:14:20;;;;;;;;;;;;;;;29.89;65.29;95170.03;5054562;28;1020;-60
2023/06/24 11:16:46;;;;;;;;;;;;;;;29.80;69.72;95176.41;5054161;28;1506;-60
2023/06/24 11:19:12;;;;;;;;;;;;;;;29.64;69.55;95181.97;5047453;28;3038;-60
2023/06/24 11:21:38;;;;;;;;;;;;;;;29.54;70.63;95182.00;5049845;28;2909;-60
2023/06/24 11:24:05;;;;;;;;;;;;;;;29.51;69.82;95180.63;5054474;28;2050;-60
2023/06/24 11:26:32;;;;;;;;;;;;;;;29.58;70.77;95170.13;5054241;28;2042;-60
2023/06/24 11:28:58;;;;;;;;;;;;;;;29.51;71.71;95161.34;5053691;28;1336;-59
2023/06/24 11:31:25;;;;;;;;;;;;;;;29.41;71.04;95150.38;5045801;28;2082;-59
2023/06/24 11:33:51;;;;;;;;;;;;;;;29.27;71.81;95150.13;5046934;28;2865;-60
2023/06/24 11:36:20;;;;;;;;;;;;;;;29.23;71.95;95139.94;5053805;28;1053;-60
2023/06/24 11:38:47;;;;;;;;;;;;;;;29.23;72.23;95142.69;5054165;28;1027;-60
2023/06/24 11:41:13;;;;;;;;;;;;;;;29.19;72.07;95143.25;5054103;28;969;-60
2023/06/24 11:43:45;;;;;;;;;;;;;;;29.18;71.87;95138.06;5053680;28;1910;-60
2023/06/24 11:46:33;;;;;;;;;;;;;;;29.11;72.78;95130.03;5053487;28;1499;-60
2023/06/24 11:49:03;;;;;;;;;;;;;;;29.04;71.66;95125.94;5053702;28;1041;-59
2023/06/24 11:51:30;;;;;;;;;;;;;;;29.04;72.29;95132.25;5053541;28;1120;-60
2023/06/24 11:53:59;;;;;;;;;;;;;;;28.96;71.60;95124.56;5053913;28;969;-60
2023/06/24 11:56:41;;;;;;;;;;;;;;;28.94;73.89;95122.09;5046299;28;2837;-60
2023/06/24 11:59:20;;;;;;;;;;;;;;;28.81;75.49;95111.66;5050876;28;2909;-59
2023/06/24 12:01:52;;;;;;;;;;;;;;;28.75;72.57;95097.06;5033407;28;2715;-60
2023/06/24 12:04:18;;;;;;;;;;;;;;;28.68;69.22;95087.47;5025586;28;2714;-61
2023/06/24 12:06:44;;;;;;;;;;;;;;;28.57;69.85;95073.72;5028922;28;2966;-61
2023/06/24 12:09:10;;;;;;;;;;;;;;;28.64;68.21;95072.63;5013830;28;1144;-61
2023/06/24 12:11:36;;;;;;;;;;;;;;;28.72;68.85;95072.91;5013723;28;1050;-61
2023/06/24 12:14:03;;;;;;;;;;;;;;;28.77;69.58;95067.38;5013566;28;1098;-60
2023/06/24 12:16:29;;;;;;;;;;;;;;;28.74;68.64;95050.59;5013440;28;1036;-62
2023/06/24 12:18:55;;;;;;;;;;;;;;;28.72;70.35;95070.16;5013832;28;1025;-60
2023/06/24 12:21:21;;;;;;;;;;;;;;;28.62;71.79;95062.72;5013751;28;1029;-60
2023/06/24 12:23:47;;;;;;;;;;;;;;;28.48;71.80;95080.03;5013824;28;1985;-60
2023/06/24 12:26:13;;;;;;;;;;;;;;;28.46;70.56;95087.72;5031215;28;2493;-62
2023/06/24 12:28:40;;;;;;;;;;;;;;;28.43;71.74;95105.59;5033545;28;978;-59
2023/06/24 12:31:06;;;;;;;;;;;;;;;28.48;70.42;95124.84;5032488;28;2382;-61
2023/06/24 12:33:32;;;;;;;;;;;;;;;28.40;70.35;95142.72;5047355;28;2529;-60
2023/06/24 12:35:59;;;;;;;;;;;;;;;28.36;71.44;95149.88;5044079;28;2873;-60
2023/06/24 12:38:25;;;;;;;;;;;;;;;28.19;71.53;95155.63;5052977;28;1116;-59
2023/06/24 12:40:52;;;;;;;;;;;;;;;28.19;69.45;95157.53;5056467;28;1046;-60
2023/06/24 12:43:19;;;;;;;;;;;;;;;28.34;70.34;95151.22;5055766;28;1983;-60
2023/06/24 12:45:46;;;;;;;;;;;;;;;28.49;70.68;95139.41;5057260;28;2048;-60
2023/06/24 12:48:13;;;;;;;;;;;;;;;28.46;71.56;95121.56;5056934;28;1033;-60
2023/06/24 12:50:40;;;;;;;;;;;;;;;28.45;72.37;95106.16;5055785;28;1058;-60
2023/06/24 12:53:06;;;;;;;;;;;;;;;28.31;72.71;95110.56;5056925;28;1049;-59
2023/06/24 12:55:33;;;;;;;;;;;;;;;28.27;71.46;95110.28;5056889;28;1049;-59